createdAt,value
2023-11-05T00:02:28.735Z,11.68
2023-11-05T00:05:00.141Z,11.68
2023-11-05T00:07:30.681Z,11.69
2023-11-05T00:10:05.540Z,11.73
2023-11-05T00:12:36.393Z,11.69
2023-11-05T00:15:07.606Z,11.77
2023-11-05T00:17:38.350Z,11.70
2023-11-05T00:20:11.800Z,11.68
2023-11-05T00:22:42.393Z,11.66
2023-11-05T00:25:15.759Z,11.68
2023-11-05T00:27:46.415Z,11.67
2023-11-05T00:30:17.181Z,11.67
2023-11-05T00:32:47.910Z,11.68
2023-11-05T00:35:18.737Z,11.66
2023-11-05T00:37:49.397Z,11.74
2023-11-05T00:40:22.938Z,11.73
2023-11-05T00:42:53.998Z,11.71
2023-11-05T00:45:24.224Z,11.64
2023-11-05T00:47:54.789Z,11.62
2023-11-05T00:50:26.591Z,11.65
2023-11-05T00:52:57.272Z,11.71
2023-11-05T00:55:32.186Z,11.74
2023-11-05T00:58:03.347Z,11.76
2023-11-05T01:00:34.364Z,11.74
2023-11-05T01:03:05.068Z,11.77
2023-11-05T01:05:36.044Z,11.82
2023-11-05T01:08:07.622Z,11.79
2023-11-05T01:10:40.947Z,11.86
2023-11-05T01:13:11.642Z,11.86
2023-11-05T01:15:42.542Z,11.75
2023-11-05T01:18:13.442Z,11.68
2023-11-05T01:20:44.379Z,11.70
2023-11-05T01:23:14.906Z,11.68
2023-11-05T01:25:48.678Z,11.67
2023-11-05T01:28:19.349Z,11.70
2023-11-05T01:30:50.812Z,11.74
2023-11-05T01:33:23.076Z,11.77
2023-11-05T01:35:55.028Z,11.81
2023-11-05T01:38:25.729Z,11.75
2023-11-05T01:40:58.896Z,11.78
2023-11-05T01:43:30.400Z,11.77
2023-11-05T01:46:01.587Z,11.71
2023-11-05T01:48:33.971Z,11.72
2023-11-05T01:51:16.284Z,11.72
2023-11-05T01:53:50.964Z,11.76
2023-11-05T01:56:26.704Z,11.76
2023-11-05T01:58:58.586Z,11.77
2023-11-05T02:01:29.858Z,11.74
2023-11-05T02:04:01.793Z,11.63
2023-11-05T02:06:32.468Z,11.64
2023-11-05T02:09:04.057Z,11.72
2023-11-05T02:11:37.799Z,11.59
2023-11-05T02:14:09.025Z,11.67
2023-11-05T02:16:39.694Z,11.63
2023-11-05T02:19:10.767Z,11.57
2023-11-05T02:21:46.528Z,11.61
2023-11-05T02:24:19.990Z,11.56
2023-11-05T02:27:00.538Z,11.44
2023-11-05T02:29:31.502Z,11.50
2023-11-05T02:32:02.071Z,11.47
2023-11-05T02:34:32.784Z,11.48
2023-11-05T02:37:04.538Z,11.46
2023-11-05T02:39:37.719Z,11.38
2023-11-05T02:42:09.125Z,11.40
2023-11-05T02:44:40.454Z,11.35
2023-11-05T02:47:11.896Z,11.31
2023-11-05T02:49:43.177Z,11.32
2023-11-05T02:52:13.923Z,11.36
2023-11-05T02:54:47.413Z,11.34
2023-11-05T02:57:22.205Z,11.33
2023-11-05T02:59:53.360Z,11.32
2023-11-05T03:02:23.950Z,11.30
2023-11-05T03:04:54.626Z,11.22
2023-11-05T03:07:25.302Z,11.19
2023-11-05T03:09:58.631Z,11.18
2023-11-05T03:12:30.418Z,11.22
2023-11-05T03:15:00.916Z,11.23
2023-11-05T03:17:31.608Z,11.20
2023-11-05T03:20:02.272Z,11.18
2023-11-05T03:22:32.953Z,11.22
2023-11-05T03:25:06.673Z,11.23
2023-11-05T03:27:37.298Z,11.28
2023-11-05T03:30:12.059Z,11.28
2023-11-05T03:32:43.134Z,11.24
2023-11-05T03:35:13.906Z,11.34
2023-11-05T03:37:44.476Z,11.31
2023-11-05T03:40:18.425Z,11.30
2023-11-05T03:42:49.006Z,11.29
2023-11-05T03:45:20.018Z,11.31
2023-11-05T03:47:50.648Z,11.29
2023-11-05T03:50:21.264Z,11.31
2023-11-05T03:52:52.810Z,11.23
2023-11-05T03:55:26.069Z,11.19
2023-11-05T03:57:56.608Z,11.19
2023-11-05T04:00:28.325Z,11.26
2023-11-05T04:02:59.635Z,11.25
2023-11-05T04:05:30.946Z,11.21
2023-11-05T04:08:01.715Z,11.25
2023-11-05T04:10:34.937Z,11.35
2023-11-05T04:13:05.544Z,11.38
2023-11-05T04:15:36.188Z,11.32
2023-11-05T04:18:06.895Z,11.25
2023-11-05T04:20:37.545Z,11.32
2023-11-05T04:23:08.353Z,11.35
2023-11-05T04:25:41.571Z,11.27
2023-11-05T04:28:12.278Z,11.23
2023-11-05T04:30:42.861Z,11.23
2023-11-05T04:33:13.490Z,11.23
2023-11-05T04:35:44.306Z,11.20
2023-11-05T04:38:14.859Z,11.15
2023-11-05T04:40:48.101Z,11.12
2023-11-05T04:43:19.169Z,11.13
2023-11-05T04:45:49.424Z,11.13
2023-11-05T04:48:20.003Z,11.06
2023-11-05T04:50:50.686Z,11.06
2023-11-05T04:53:21.345Z,11.04
2023-11-05T04:55:54.577Z,10.95
2023-11-05T04:58:25.264Z,10.91
2023-11-05T05:00:56.289Z,10.92
2023-11-05T05:03:26.897Z,10.90
2023-11-05T05:05:57.652Z,10.91
2023-11-05T05:08:28.217Z,10.90
2023-11-05T05:11:01.596Z,10.91
2023-11-05T05:13:33.095Z,10.83
2023-11-05T05:16:04.601Z,10.84
2023-11-05T05:18:35.230Z,10.93
2023-11-05T05:21:05.945Z,10.90
2023-11-05T05:23:36.537Z,10.91
2023-11-05T05:26:10.553Z,10.91
2023-11-05T05:28:41.091Z,10.88
2023-11-05T05:31:11.755Z,10.90
2023-11-05T05:33:42.311Z,10.90
2023-11-05T05:36:14.339Z,10.96
2023-11-05T05:38:44.884Z,10.94
2023-11-05T05:41:18.260Z,10.95
2023-11-05T05:43:48.923Z,10.99
2023-11-05T05:46:19.639Z,10.97
2023-11-05T05:48:50.389Z,11.03
2023-11-05T05:51:21.419Z,10.96
2023-11-05T05:53:51.623Z,10.97
2023-11-05T05:56:25.227Z,10.98
2023-11-05T05:58:55.803Z,10.90
2023-11-05T06:01:26.580Z,10.85
2023-11-05T06:03:57.564Z,10.86
2023-11-05T06:06:28.278Z,10.82
2023-11-05T06:08:58.885Z,10.89
2023-11-05T06:11:32.086Z,10.95
2023-11-05T06:14:02.593Z,10.89
2023-11-05T06:16:33.324Z,10.81
2023-11-05T06:19:03.953Z,10.83
2023-11-05T06:21:34.564Z,10.88
2023-11-05T06:24:06.479Z,10.96
2023-11-05T06:26:39.711Z,11.01
2023-11-05T06:29:10.500Z,11.01
2023-11-05T06:31:41.683Z,11.08
2023-11-05T06:34:12.372Z,11.13
2023-11-05T06:37:01.341Z,11.12
2023-11-05T06:39:32.527Z,11.13
2023-11-05T06:42:05.764Z,11.17
2023-11-05T06:44:36.537Z,11.20
2023-11-05T06:47:07.467Z,11.16
2023-11-05T06:49:38.057Z,11.19
2023-11-05T06:52:09.744Z,11.24
2023-11-05T06:54:41.234Z,11.28
2023-11-05T06:57:14.853Z,11.22
2023-11-05T06:59:45.433Z,11.23
2023-11-05T07:02:16.198Z,11.26
2023-11-05T07:04:46.947Z,11.29
2023-11-05T07:07:19.614Z,11.34
2023-11-05T07:09:52.496Z,11.36
2023-11-05T07:12:25.793Z,11.37
2023-11-05T07:14:56.451Z,11.47
2023-11-05T07:17:27.107Z,11.61
2023-11-05T07:19:57.717Z,11.80
2023-11-05T07:22:28.245Z,11.90
2023-11-05T07:24:58.834Z,11.95
2023-11-05T07:27:32.043Z,11.98
2023-11-05T07:30:02.644Z,12.05
2023-11-05T07:32:33.496Z,12.09
2023-11-05T07:35:04.071Z,12.08
2023-11-05T07:37:34.807Z,12.12
2023-11-05T07:40:07.769Z,12.13
2023-11-05T07:42:42.451Z,12.13
2023-11-05T07:45:14.548Z,12.23
2023-11-05T07:47:44.801Z,12.25
2023-11-05T07:50:17.213Z,12.25
2023-11-05T07:52:47.749Z,12.30
2023-11-05T07:55:18.525Z,12.39
2023-11-05T07:57:51.777Z,12.48
2023-11-05T08:00:23.247Z,12.59
2023-11-05T08:02:53.913Z,12.57
2023-11-05T08:05:24.676Z,12.70
2023-11-05T08:07:55.236Z,12.63
2023-11-05T08:10:25.847Z,12.62
2023-11-05T08:12:59.243Z,12.66
2023-11-05T08:15:29.807Z,12.60
2023-11-05T08:18:00.461Z,12.66
2023-11-05T08:20:31.030Z,12.61
2023-11-05T08:23:01.726Z,12.67
2023-11-05T08:25:32.318Z,12.69
2023-11-05T08:28:12.588Z,12.67
2023-11-05T08:30:50.760Z,12.76
2023-11-05T08:33:21.498Z,12.79
2023-11-05T08:35:53.123Z,12.85
2023-11-05T08:38:23.822Z,12.86
2023-11-05T08:40:54.490Z,12.85
2023-11-05T08:43:29.381Z,12.90
2023-11-05T08:46:01.486Z,12.91
2023-11-05T08:48:33.556Z,12.96
2023-11-05T08:51:04.198Z,13.00
2023-11-05T08:53:34.806Z,12.94
2023-11-05T08:56:05.594Z,12.94
2023-11-05T08:58:38.805Z,12.89
2023-11-05T09:01:09.526Z,12.88
2023-11-05T09:03:40.264Z,12.95
2023-11-05T09:06:11.203Z,12.90
2023-11-05T09:08:42.522Z,12.86
2023-11-05T09:11:17.750Z,12.89
2023-11-05T09:14:08.071Z,12.86
2023-11-05T09:16:46.300Z,12.78
2023-11-05T09:19:22.384Z,12.87
2023-11-05T09:21:57.002Z,12.95
2023-11-05T09:24:41.306Z,13.04
2023-11-05T09:27:12.568Z,13.19
2023-11-05T09:29:47.777Z,13.19
2023-11-05T09:32:18.729Z,13.20
2023-11-05T09:34:49.581Z,13.27
2023-11-05T09:37:22.632Z,13.29
2023-11-05T09:39:55.902Z,13.33
2023-11-05T09:42:29.565Z,13.40
2023-11-05T09:45:13.103Z,13.61
2023-11-05T09:47:47.534Z,13.63
2023-11-05T09:50:18.289Z,13.59
2023-11-05T09:52:49.415Z,13.51
2023-11-05T09:55:26.535Z,13.51
2023-11-05T09:58:00.391Z,13.52
2023-11-05T10:00:36.996Z,13.65
2023-11-05T10:03:10.139Z,13.73
2023-11-05T10:05:45.846Z,13.76
2023-11-05T10:08:18.059Z,14.02
2023-11-05T10:10:53.551Z,14.09
2023-11-05T10:13:27.524Z,14.34
2023-11-05T10:16:05.581Z,14.40
2023-11-05T10:18:40.416Z,14.39
2023-11-05T10:21:12.642Z,14.64
2023-11-05T10:23:56.570Z,14.53
2023-11-05T10:26:32.175Z,14.58
2023-11-05T10:29:02.840Z,14.57
2023-11-05T10:31:37.899Z,14.66
2023-11-05T10:34:11.484Z,14.66
2023-11-05T10:36:42.158Z,14.72
2023-11-05T10:39:13.051Z,14.54
2023-11-05T10:41:43.920Z,14.45
2023-11-05T10:44:15.643Z,14.48
2023-11-05T10:46:55.720Z,14.88
2023-11-05T10:49:27.932Z,15.20
2023-11-05T10:51:58.863Z,15.34
2023-11-05T10:54:29.334Z,15.38
2023-11-05T10:57:00.055Z,15.38
2023-11-05T10:59:39.579Z,15.56
2023-11-05T11:02:17.621Z,15.47
2023-11-05T11:04:48.334Z,15.20
2023-11-05T11:07:19.146Z,14.90
2023-11-05T11:09:50.855Z,14.57
2023-11-05T11:12:34.859Z,14.37
2023-11-05T11:15:08.230Z,14.39
2023-11-05T11:17:44.153Z,14.23
2023-11-05T11:20:17.559Z,13.94
2023-11-05T11:22:50.312Z,13.84
2023-11-05T11:25:21.201Z,13.83
2023-11-05T11:27:53.555Z,13.66
2023-11-05T11:30:24.306Z,13.59
2023-11-05T11:32:58.034Z,13.49
2023-11-05T11:35:30.029Z,13.46
2023-11-05T11:38:02.399Z,13.32
2023-11-05T11:40:33.034Z,13.12
2023-11-05T11:43:04.007Z,13.03
2023-11-05T11:45:34.913Z,13.00
2023-11-05T11:48:13.328Z,12.88
2023-11-05T11:50:54.774Z,12.82
2023-11-05T11:53:32.384Z,12.71
2023-11-05T11:56:04.354Z,12.46
2023-11-05T11:58:41.092Z,12.35
2023-11-05T12:01:17.151Z,12.19
2023-11-05T12:03:50.825Z,12.31
2023-11-05T12:06:23.138Z,12.37
2023-11-05T12:08:53.970Z,12.42
2023-11-05T12:11:26.212Z,12.36
2023-11-05T12:13:59.189Z,12.36
2023-11-05T12:16:30.116Z,12.39
2023-11-05T12:19:04.624Z,12.36
2023-11-05T12:21:36.095Z,12.45
2023-11-05T12:24:08.588Z,12.39
2023-11-05T12:26:44.086Z,12.44
2023-11-05T12:29:15.788Z,12.50
2023-11-05T12:31:47.796Z,12.71
2023-11-05T12:34:22.622Z,13.00
2023-11-05T12:36:54.275Z,13.74
2023-11-05T12:39:24.778Z,13.90
2023-11-05T12:41:55.455Z,13.79
2023-11-05T12:44:26.068Z,13.64
2023-11-05T12:47:02.674Z,13.68
2023-11-05T12:49:36.096Z,13.53
2023-11-05T12:52:07.148Z,13.39
2023-11-05T12:54:37.288Z,13.16
2023-11-05T12:57:10.549Z,13.12
2023-11-05T12:59:42.853Z,13.18
2023-11-05T13:02:13.604Z,13.24
2023-11-05T13:04:47.056Z,13.15
2023-11-05T13:07:18.067Z,13.24
2023-11-05T13:09:48.798Z,13.49
2023-11-05T13:12:19.397Z,13.63
2023-11-05T13:14:49.943Z,13.79
2023-11-05T13:17:21.413Z,13.68
2023-11-05T13:19:57.603Z,13.56
2023-11-05T13:22:28.180Z,13.40
2023-11-05T13:25:01.563Z,13.29
2023-11-05T13:27:32.266Z,13.22
2023-11-05T13:30:05.019Z,13.20
2023-11-05T13:32:36.386Z,13.22
2023-11-05T13:35:11.644Z,13.19
2023-11-05T13:37:42.784Z,13.07
2023-11-05T13:40:14.229Z,13.05
2023-11-05T13:42:44.815Z,13.11
2023-11-05T13:45:15.466Z,13.02
2023-11-05T13:47:46.089Z,12.99
2023-11-05T13:50:19.562Z,12.93
2023-11-05T13:52:50.144Z,12.99
2023-11-05T13:55:20.802Z,12.97
2023-11-05T13:57:51.458Z,13.05
2023-11-05T14:00:22.327Z,13.30
2023-11-05T14:02:53.577Z,13.23
2023-11-05T14:05:26.833Z,13.36
2023-11-05T14:07:57.470Z,13.49
2023-11-05T14:10:28.364Z,13.40
2023-11-05T14:12:59.183Z,13.45
2023-11-05T14:15:29.951Z,13.63
2023-11-05T14:18:00.901Z,13.45
2023-11-05T14:20:38.103Z,13.31
2023-11-05T14:23:13.884Z,13.19
2023-11-05T14:25:51.231Z,13.11
2023-11-05T14:28:23.383Z,13.05
2023-11-05T14:30:55.664Z,13.21
2023-11-05T14:33:29.635Z,13.17
2023-11-05T14:36:04.176Z,13.17
2023-11-05T14:38:49.327Z,13.04
2023-11-05T14:41:25.470Z,12.86
2023-11-05T14:43:56.916Z,12.93
2023-11-05T14:46:28.926Z,13.02
2023-11-05T14:49:16.191Z,12.87
2023-11-05T14:51:49.847Z,12.82
2023-11-05T14:54:24.210Z,12.77
2023-11-05T14:56:55.173Z,12.72
2023-11-05T14:59:25.629Z,12.64
2023-11-05T15:01:57.839Z,12.65
2023-11-05T15:04:33.495Z,12.77
2023-11-05T15:07:08.563Z,12.70
2023-11-05T15:09:40.745Z,12.64
2023-11-05T15:12:21.266Z,12.56
2023-11-05T15:14:55.829Z,12.61
2023-11-05T15:17:27.037Z,12.52
2023-11-05T15:19:58.022Z,12.51
2023-11-05T15:22:31.815Z,12.42
2023-11-05T15:25:02.837Z,12.47
2023-11-05T15:27:33.183Z,12.47
2023-11-05T15:30:10.266Z,12.48
2023-11-05T15:32:43.186Z,12.50
2023-11-05T15:35:14.147Z,12.48
2023-11-05T15:37:48.124Z,12.38
2023-11-05T15:40:20.601Z,12.41
2023-11-05T15:42:52.037Z,12.37
2023-11-05T15:45:23.651Z,12.23
2023-11-05T15:47:54.435Z,12.14
2023-11-05T15:50:26.170Z,12.06
2023-11-05T15:52:59.633Z,12.03
2023-11-05T15:55:30.606Z,11.98
2023-11-05T15:58:01.498Z,11.96
2023-11-05T16:00:33.535Z,11.93
2023-11-05T16:03:04.614Z,11.98
2023-11-05T16:05:35.412Z,12.07
2023-11-05T16:08:08.879Z,12.01
2023-11-05T16:10:39.503Z,12.00
2023-11-05T16:13:10.506Z,11.94
2023-11-05T16:15:40.948Z,11.84
2023-11-05T16:18:14.581Z,11.78
2023-11-05T16:20:45.997Z,11.70
2023-11-05T16:23:18.909Z,11.70
2023-11-05T16:25:49.982Z,11.69
2023-11-05T16:28:26.751Z,11.63
2023-11-05T16:30:57.382Z,11.64
2023-11-05T16:33:28.626Z,11.63
2023-11-05T16:36:02.495Z,11.65
2023-11-05T16:38:35.926Z,11.67
2023-11-05T16:41:07.291Z,11.67
2023-11-05T16:43:38.837Z,11.64
2023-11-05T16:46:09.676Z,11.66
2023-11-05T16:48:40.381Z,11.67
2023-11-05T16:51:11.423Z,11.69
2023-11-05T16:53:44.876Z,11.70
2023-11-05T16:56:15.684Z,11.65
2023-11-05T16:58:49.433Z,11.65
2023-11-05T17:01:22.286Z,11.64
2023-11-05T17:03:52.882Z,11.67
2023-11-05T17:06:23.488Z,11.70
2023-11-05T17:08:56.968Z,11.66
2023-11-05T17:11:27.822Z,11.61
2023-11-05T17:14:00.451Z,11.59
2023-11-05T17:16:31.897Z,11.61
2023-11-05T17:19:02.738Z,11.63
2023-11-05T17:21:33.708Z,11.59
2023-11-05T17:24:07.195Z,11.57
2023-11-05T17:26:38.607Z,11.52
2023-11-05T17:29:09.581Z,11.52
2023-11-05T17:31:40.775Z,11.49
2023-11-05T17:34:11.737Z,11.45
2023-11-05T17:36:42.982Z,11.44
2023-11-05T17:39:16.417Z,11.50
2023-11-05T17:41:47.158Z,11.50
2023-11-05T17:44:18.195Z,11.60
2023-11-05T17:46:48.678Z,11.66
2023-11-05T17:49:19.391Z,11.71
2023-11-05T17:51:50.391Z,11.69
2023-11-05T17:54:25.613Z,11.77
2023-11-05T17:56:57.798Z,11.76
2023-11-05T17:59:29.006Z,11.70
2023-11-05T18:01:59.485Z,11.68
2023-11-05T18:04:30.490Z,11.69
2023-11-05T18:07:01.122Z,11.67
2023-11-05T18:09:34.526Z,11.60
2023-11-05T18:12:06.154Z,11.60
2023-11-05T18:14:36.998Z,11.58
2023-11-05T18:17:08.362Z,11.61
2023-11-05T18:19:39.203Z,11.61
2023-11-05T18:22:11.394Z,11.64
2023-11-05T18:24:45.036Z,11.60
2023-11-05T18:27:16.152Z,11.61
2023-11-05T18:29:46.983Z,11.61
2023-11-05T18:32:18.756Z,11.65
2023-11-05T18:34:49.550Z,11.63
2023-11-05T18:37:20.405Z,11.68
2023-11-05T18:39:54.664Z,11.74
2023-11-05T18:42:25.694Z,11.71
2023-11-05T18:44:56.295Z,11.73
2023-11-05T18:47:27.671Z,11.75
2023-11-05T18:49:58.875Z,11.66
2023-11-05T18:52:30.064Z,11.55
2023-11-05T18:55:04.978Z,11.55
2023-11-05T18:57:36.357Z,11.59
2023-11-05T19:00:09.746Z,11.61
2023-11-05T19:02:41.567Z,11.55
2023-11-05T19:05:12.972Z,11.52
2023-11-05T19:07:44.192Z,11.46
2023-11-05T19:10:17.699Z,11.48
2023-11-05T19:12:48.640Z,11.46
2023-11-05T19:15:19.669Z,11.41
2023-11-05T19:17:50.234Z,11.37
2023-11-05T19:20:20.996Z,11.42
2023-11-05T19:22:51.879Z,11.39
2023-11-05T19:25:25.560Z,11.34
2023-11-05T19:27:56.401Z,11.32
2023-11-05T19:30:27.342Z,11.39
2023-11-05T19:33:00.021Z,11.40
2023-11-05T19:35:31.229Z,11.47
2023-11-05T19:38:02.289Z,11.48
2023-11-05T19:40:35.800Z,11.44
2023-11-05T19:43:06.745Z,11.48
2023-11-05T19:45:37.572Z,11.58
2023-11-05T19:48:10.258Z,11.66
2023-11-05T19:50:41.803Z,11.66
2023-11-05T19:53:15.055Z,11.64
2023-11-05T19:55:50.303Z,11.65
2023-11-05T19:58:21.029Z,11.72
2023-11-05T20:00:52.489Z,11.68
2023-11-05T20:03:23.422Z,11.69
2023-11-05T20:05:54.513Z,11.72
2023-11-05T20:08:24.941Z,11.77
2023-11-05T20:10:58.685Z,11.80
2023-11-05T20:13:29.936Z,11.84
2023-11-05T20:16:00.910Z,11.79
2023-11-05T20:18:31.996Z,11.76
2023-11-05T20:21:02.273Z,11.78
2023-11-05T20:23:34.046Z,11.79
2023-11-05T20:26:08.113Z,11.76
2023-11-05T20:28:41.403Z,11.70
2023-11-05T20:31:14.504Z,11.70
2023-11-05T20:33:45.300Z,11.70
2023-11-05T20:36:16.567Z,11.67
2023-11-05T20:38:47.431Z,11.66
2023-11-05T20:41:20.964Z,11.67
2023-11-05T20:43:53.053Z,11.66
2023-11-05T20:46:24.154Z,11.71
2023-11-05T20:48:55.572Z,11.73
2023-11-05T20:51:27.478Z,11.67
2023-11-05T20:53:58.454Z,11.68
2023-11-05T20:56:32.107Z,11.69
2023-11-05T20:59:04.539Z,11.73
2023-11-05T21:01:35.606Z,11.76
2023-11-05T21:04:09.073Z,11.75
2023-11-05T21:06:40.182Z,11.69
2023-11-05T21:09:10.724Z,11.62
2023-11-05T21:11:46.030Z,11.59
2023-11-05T21:14:16.890Z,11.59
2023-11-05T21:16:47.803Z,11.57
2023-11-05T21:19:19.006Z,11.60
2023-11-05T21:21:50.139Z,11.60
2023-11-05T21:24:20.442Z,11.59
2023-11-05T21:26:53.529Z,11.58
2023-11-05T21:29:24.155Z,11.57
2023-11-05T21:31:55.193Z,11.58
2023-11-05T21:34:25.417Z,11.54
2023-11-05T21:36:56.026Z,11.58
2023-11-05T21:39:26.604Z,11.60
2023-11-05T21:42:00.215Z,11.52
2023-11-05T21:44:30.789Z,11.43
2023-11-05T21:47:02.645Z,11.37
2023-11-05T21:49:33.288Z,11.33
2023-11-05T21:52:03.894Z,11.36
2023-11-05T21:54:34.677Z,11.29
2023-11-05T21:57:09.428Z,11.29
2023-11-05T21:59:39.985Z,11.26
2023-11-05T22:02:11.839Z,11.18
2023-11-05T22:04:42.590Z,11.15
2023-11-05T22:07:13.535Z,11.07
2023-11-05T22:09:44.007Z,11.01
2023-11-05T22:12:17.236Z,10.95
2023-11-05T22:14:47.929Z,10.91
2023-11-05T22:17:18.638Z,10.87
2023-11-05T22:19:49.124Z,10.90
2023-11-05T22:22:19.678Z,10.93
2023-11-05T22:24:50.211Z,10.90
2023-11-05T22:27:23.667Z,10.89
2023-11-05T22:29:54.206Z,10.80
2023-11-05T22:32:25.025Z,10.78
2023-11-05T22:34:56.404Z,10.78
2023-11-05T22:37:27.786Z,10.72
2023-11-05T22:39:58.318Z,10.71
2023-11-05T22:42:31.586Z,10.74
2023-11-05T22:45:02.129Z,10.71
2023-11-05T22:47:32.755Z,10.67
2023-11-05T22:50:04.028Z,10.71
2023-11-05T22:52:34.666Z,10.70
2023-11-05T22:55:05.738Z,10.76
2023-11-05T22:57:38.579Z,10.80
2023-11-05T23:00:18.063Z,10.67
2023-11-05T23:02:48.891Z,10.66
2023-11-05T23:05:19.617Z,10.62
2023-11-05T23:07:50.263Z,10.67
2023-11-05T23:10:21.186Z,10.68
2023-11-05T23:12:54.332Z,10.68
2023-11-05T23:15:24.970Z,10.62
2023-11-05T23:17:55.683Z,10.56
2023-11-05T23:20:26.250Z,10.49
2023-11-05T23:22:56.808Z,10.38
2023-11-05T23:25:35.058Z,10.37
2023-11-05T23:28:11.800Z,10.36
2023-11-05T23:30:42.646Z,10.44
2023-11-05T23:33:13.322Z,10.39
2023-11-05T23:35:43.847Z,10.40
2023-11-05T23:38:15.615Z,10.30
2023-11-05T23:40:46.226Z,10.27
2023-11-05T23:43:19.610Z,10.23
2023-11-05T23:45:50.360Z,10.26
2023-11-05T23:48:21.614Z,10.24
2023-11-05T23:50:52.263Z,10.24
2023-11-05T23:53:22.986Z,10.26
2023-11-05T23:55:54.905Z,10.26
2023-11-05T23:58:28.143Z,10.25
